Time;durP1;ratioP1;P1;durP2;ratioP2;P2;SDS_P1;SDS_P2;PMS_P1;PMS_P2;Temp;Humidity;BMP_temperature;BMP_pressure;BME280_temperature;BME280_humidity;BME280_pressure;Samples;Min_cycle;Max_cycle;Signal;HPM_P1;HPM_P2
2022/11/09 00:02:09;;;;;;;0.20;0.10;;;;;;;;;;5057893;28;20039;-84
2022/11/09 00:04:35;;;;;;;0.20;0.10;;;;;;;;;;5061445;28;20031;-81
2022/11/09 00:07:01;;;;;;;0.20;0.10;;;;;;;;;;5055786;28;20040;-87
2022/11/09 00:09:27;;;;;;;0.20;0.10;;;;;;;;;;5063793;28;20072;-84
2022/11/09 00:11:54;;;;;;;0.20;0.10;;;;;;;;;;5040014;28;20035;-82
2022/11/09 00:14:20;;;;;;;0.20;0.10;;;;;;;;;;5048707;28;20036;-83
2022/11/09 00:16:49;;;;;;;0.20;0.10;;;;;;;;;;5062304;28;20462;-84
2022/11/09 00:19:15;;;;;;;0.20;0.10;;;;;;;;;;5070428;28;20036;-84
2022/11/09 00:21:41;;;;;;;0.20;0.10;;;;;;;;;;5066121;28;20061;-86
2022/11/09 00:24:07;;;;;;;0.20;0.10;;;;;;;;;;5044862;27;20050;-84
2022/11/09 00:26:33;;;;;;;0.20;0.10;;;;;;;;;;5031516;28;20506;-82
2022/11/09 00:28:59;;;;;;;0.20;0.10;;;;;;;;;;5048302;28;20043;-80
2022/11/09 00:31:25;;;;;;;0.20;0.10;;;;;;;;;;5051523;27;20054;-85
2022/11/09 00:33:52;;;;;;;0.20;0.10;;;;;;;;;;5085789;28;20048;-86
2022/11/09 00:36:19;;;;;;;0.20;0.10;;;;;;;;;;5066198;28;20047;-84
2022/11/09 00:38:52;;;;;;;0.20;0.15;;;;;;;;;;5067174;28;20044;-83
2022/11/09 00:41:19;;;;;;;0.20;0.10;;;;;;;;;;5064016;28;20046;-83
2022/11/09 00:43:45;;;;;;;0.20;0.00;;;;;;;;;;5063458;28;20050;-83
2022/11/09 00:46:11;;;;;;;0.20;0.10;;;;;;;;;;5067759;28;20044;-86
2022/11/09 00:48:37;;;;;;;0.20;0.10;;;;;;;;;;5072286;28;20394;-86
2022/11/09 00:51:04;;;;;;;0.20;0.10;;;;;;;;;;5072171;28;20135;-85
2022/11/09 00:53:30;;;;;;;0.20;0.10;;;;;;;;;;5089673;28;20072;-86
2022/11/09 00:55:57;;;;;;;0.20;0.10;;;;;;;;;;5067806;28;20040;-83
2022/11/09 00:58:24;;;;;;;0.20;0.10;;;;;;;;;;5074971;27;20536;-82
2022/11/09 01:00:51;;;;;;;0.20;0.00;;;;;;;;;;5065512;28;20047;-82
2022/11/09 01:03:17;;;;;;;0.20;0.10;;;;;;;;;;5071402;28;20040;-82
2022/11/09 01:05:43;;;;;;;0.20;0.10;;;;;;;;;;5069227;28;20036;-85
2022/11/09 01:08:09;;;;;;;0.35;0.35;;;;;;;;;;5070505;28;20873;-84
2022/11/09 01:10:39;;;;;;;0.73;0.28;;;;;;;;;;5071502;28;20501;-86
2022/11/09 01:13:05;;;;;;;0.20;0.10;;;;;;;;;;5070617;28;20040;-83
2022/11/09 01:15:32;;;;;;;0.20;0.10;;;;;;;;;;5055733;28;20386;-86
2022/11/09 01:17:58;;;;;;;0.20;0.10;;;;;;;;;;5069966;28;20545;-84
2022/11/09 01:20:24;;;;;;;0.20;0.10;;;;;;;;;;5055816;28;20027;-83
2022/11/09 01:22:50;;;;;;;0.20;0.10;;;;;;;;;;5073828;28;20061;-83
2022/11/09 01:25:16;;;;;;;0.20;0.15;;;;;;;;;;5073261;28;20039;-81
2022/11/09 01:27:42;;;;;;;0.20;0.10;;;;;;;;;;5069164;28;20042;-84
2022/11/09 01:30:08;;;;;;;0.20;0.10;;;;;;;;;;5069302;28;20070;-83
2022/11/09 01:32:34;;;;;;;0.20;0.10;;;;;;;;;;5053093;27;20131;-83
2022/11/09 01:35:00;;;;;;;0.20;0.10;;;;;;;;;;5069612;28;20476;-84
2022/11/09 01:37:26;;;;;;;0.20;0.10;;;;;;;;;;5087158;28;20043;-85
2022/11/09 01:39:52;;;;;;;0.20;0.10;;;;;;;;;;5070144;28;20044;-85
2022/11/09 01:42:25;;;;;;;0.20;0.10;;;;;;;;;;5068781;28;20039;-83
2022/11/09 01:45:11;;;;;;;0.20;0.10;;;;;;;;;;5054605;28;20059;-87
2022/11/09 01:47:37;;;;;;;0.20;0.10;;;;;;;;;;5058063;27;20039;-85
2022/11/09 01:50:03;;;;;;;0.20;0.10;;;;;;;;;;5069188;28;20079;-82
2022/11/09 01:52:38;;;;;;;0.20;0.10;;;;;;;;;;5065812;28;20032;-84
2022/11/09 01:55:10;;;;;;;0.38;0.38;;;;;;;;;;5067883;28;20042;-87
2022/11/09 01:57:39;;;;;;;0.20;0.10;;;;;;;;;;5068089;28;20054;-82
2022/11/09 02:00:15;;;;;;;0.20;0.05;;;;;;;;;;5068935;28;20040;-87
2022/11/09 02:02:51;;;;;;;0.20;0.10;;;;;;;;;;5084500;28;20041;-83
2022/11/09 02:05:18;;;;;;;0.20;0.10;;;;;;;;;;5066397;28;20036;-82
2022/11/09 02:07:44;;;;;;;0.30;0.30;;;;;;;;;;5065987;28;20073;-85
2022/11/09 02:10:37;;;;;;;0.20;0.10;;;;;;;;;;5067386;28;20048;-86
2022/11/09 02:13:03;;;;;;;0.20;0.10;;;;;;;;;;5083308;28;20552;-83
2022/11/09 02:15:29;;;;;;;0.20;0.10;;;;;;;;;;5081276;28;20035;-82
2022/11/09 02:17:56;;;;;;;0.20;0.10;;;;;;;;;;5069396;28;20062;-81
2022/11/09 02:20:22;;;;;;;0.20;0.10;;;;;;;;;;5062590;28;20108;-85
2022/11/09 02:22:49;;;;;;;0.20;0.10;;;;;;;;;;5081151;28;20047;-85
2022/11/09 02:25:16;;;;;;;0.20;0.10;;;;;;;;;;5067384;28;20046;-86
2022/11/09 02:27:42;;;;;;;0.20;0.10;;;;;;;;;;5067246;28;20080;-85
2022/11/09 02:30:09;;;;;;;0.20;0.10;;;;;;;;;;5065042;28;20470;-86
2022/11/09 02:32:35;;;;;;;0.20;0.10;;;;;;;;;;5067802;27;20040;-86
2022/11/09 02:35:01;;;;;;;0.20;0.10;;;;;;;;;;5050346;27;20139;-85
2022/11/09 02:37:34;;;;;;;0.20;0.10;;;;;;;;;;5068652;28;20058;-83
2022/11/09 02:40:00;;;;;;;0.20;0.10;;;;;;;;;;5079727;28;20040;-83
2022/11/09 02:42:26;;;;;;;0.20;0.10;;;;;;;;;;5072769;28;20115;-84
2022/11/09 02:44:55;;;;;;;0.20;0.10;;;;;;;;;;5049777;28;20045;-88
2022/11/09 02:47:21;;;;;;;0.20;0.10;;;;;;;;;;5064104;28;20039;-84
2022/11/09 02:49:47;;;;;;;0.20;0.10;;;;;;;;;;5070143;28;20570;-85
2022/11/09 02:52:13;;;;;;;0.20;0.10;;;;;;;;;;5068106;28;20032;-85
2022/11/09 02:54:39;;;;;;;0.20;0.10;;;;;;;;;;5066754;28;20055;-86
2022/11/09 02:57:05;;;;;;;0.20;0.10;;;;;;;;;;5048413;28;20076;-85
2022/11/09 02:59:31;;;;;;;0.20;0.20;;;;;;;;;;5052963;27;20077;-86
2022/11/09 03:01:57;;;;;;;0.20;0.10;;;;;;;;;;5063077;28;20531;-86
2022/11/09 03:04:23;;;;;;;0.20;0.10;;;;;;;;;;5063879;28;20039;-86
2022/11/09 03:06:49;;;;;;;0.20;0.10;;;;;;;;;;5068311;28;20154;-83
2022/11/09 03:09:15;;;;;;;0.20;0.10;;;;;;;;;;5069932;28;20097;-83
2022/11/09 03:11:42;;;;;;;0.20;0.10;;;;;;;;;;5081643;28;20039;-88
2022/11/09 03:14:11;;;;;;;0.20;0.10;;;;;;;;;;5064840;28;20751;-86
2022/11/09 03:16:38;;;;;;;0.20;0.15;;;;;;;;;;5066355;28;20038;-87
2022/11/09 03:19:04;;;;;;;0.25;0.10;;;;;;;;;;5066908;28;20506;-86
2022/11/09 03:21:30;;;;;;;0.20;0.10;;;;;;;;;;5065424;28;20042;-87
2022/11/09 03:23:56;;;;;;;0.20;0.10;;;;;;;;;;5065715;28;20536;-84
2022/11/09 03:26:23;;;;;;;0.20;0.10;;;;;;;;;;5081868;27;20044;-84
2022/11/09 03:28:49;;;;;;;0.20;0.10;;;;;;;;;;5085441;28;20043;-87
2022/11/09 03:31:15;;;;;;;0.20;0.10;;;;;;;;;;5059108;28;20046;-87
2022/11/09 03:33:41;;;;;;;0.20;0.20;;;;;;;;;;5059694;22;20050;-77
2022/11/09 03:36:07;;;;;;;0.20;0.10;;;;;;;;;;5068119;28;20044;-77
2022/11/09 03:38:34;;;;;;;0.20;0.05;;;;;;;;;;5054615;28;20688;-78
2022/11/09 03:41:00;;;;;;;0.20;0.10;;;;;;;;;;5054749;28;20041;-77
2022/11/09 03:43:27;;;;;;;0.20;0.10;;;;;;;;;;5057547;28;20123;-79
2022/11/09 03:45:53;;;;;;;0.20;0.10;;;;;;;;;;5070552;28;20038;-77
2022/11/09 03:48:19;;;;;;;0.20;0.10;;;;;;;;;;5055976;28;20032;-78
2022/11/09 03:50:45;;;;;;;0.20;0.10;;;;;;;;;;5075938;28;20036;-77
2022/11/09 03:53:12;;;;;;;6.70;2.22;;;;;;;;;;5055513;28;20120;-77
2022/11/09 03:55:38;;;;;;;0.20;0.10;;;;;;;;;;5050050;28;20035;-78
2022/11/09 03:58:05;;;;;;;0.20;0.10;;;;;;;;;;5053517;28;20047;-77
2022/11/09 04:00:31;;;;;;;0.20;0.00;;;;;;;;;;5056646;28;20035;-79
2022/11/09 04:02:57;;;;;;;0.57;0.32;;;;;;;;;;5070188;28;20055;-78
2022/11/09 04:05:23;;;;;;;0.20;0.10;;;;;;;;;;5066682;28;20438;-78
2022/11/09 04:07:51;;;;;;;0.20;0.10;;;;;;;;;;5071860;28;20044;-76
2022/11/09 04:10:17;;;;;;;0.20;0.10;;;;;;;;;;5046536;28;20036;-76
2022/11/09 04:12:44;;;;;;;0.20;0.10;;;;;;;;;;5062403;28;20418;-75
2022/11/09 04:15:11;;;;;;;0.20;0.10;;;;;;;;;;5047005;28;20047;-77
2022/11/09 04:17:37;;;;;;;0.38;0.30;;;;;;;;;;5051744;28;20690;-78
2022/11/09 04:20:03;;;;;;;0.20;0.10;;;;;;;;;;5049327;28;20128;-81
2022/11/09 04:22:29;;;;;;;0.20;0.10;;;;;;;;;;5054687;28;20436;-77
2022/11/09 04:24:55;;;;;;;0.20;0.10;;;;;;;;;;5048467;28;20044;-77
2022/11/09 04:27:21;;;;;;;0.20;0.10;;;;;;;;;;5064467;28;20060;-78
2022/11/09 04:29:47;;;;;;;0.20;0.10;;;;;;;;;;5056872;28;20048;-78
2022/11/09 04:32:13;;;;;;;0.20;0.10;;;;;;;;;;5053706;28;20986;-79
2022/11/09 04:34:42;;;;;;;0.20;0.10;;;;;;;;;;5051536;28;21902;-77
2022/11/09 04:37:09;;;;;;;0.20;0.10;;;;;;;;;;5062344;28;20068;-77
2022/11/09 04:39:35;;;;;;;0.28;0.17;;;;;;;;;;5043340;28;20067;-79
2022/11/09 04:42:02;;;;;;;0.60;0.55;;;;;;;;;;5047698;28;20048;-78
2022/11/09 04:44:28;;;;;;;0.20;0.10;;;;;;;;;;5052056;28;20502;-78
2022/11/09 04:46:54;;;;;;;0.20;0.10;;;;;;;;;;5053141;28;20035;-80
2022/11/09 04:49:20;;;;;;;0.20;0.10;;;;;;;;;;5069282;28;20044;-77
2022/11/09 04:51:46;;;;;;;0.20;0.15;;;;;;;;;;5066572;28;20031;-78
2022/11/09 04:54:13;;;;;;;0.20;0.10;;;;;;;;;;5069073;28;20043;-78
2022/11/09 04:56:39;;;;;;;0.20;0.10;;;;;;;;;;5064833;28;20131;-78
2022/11/09 04:59:05;;;;;;;1.38;0.20;;;;;;;;;;5068712;28;20044;-76
2022/11/09 05:01:31;;;;;;;5.25;1.55;;;;;;;;;;5054197;28;20044;-77
2022/11/09 05:03:57;;;;;;;0.20;0.10;;;;;;;;;;5070720;28;20526;-78
2022/11/09 05:06:32;;;;;;;0.20;0.00;;;;;;;;;;5066783;28;20244;-79
2022/11/09 05:08:59;;;;;;;0.20;0.10;;;;;;;;;;5052913;28;20087;-76
2022/11/09 05:11:25;;;;;;;0.20;0.10;;;;;;;;;;5049344;28;20044;-79
2022/11/09 05:13:52;;;;;;;0.20;0.10;;;;;;;;;;5071176;28;20177;-78
2022/11/09 05:16:18;;;;;;;0.20;0.10;;;;;;;;;;5061234;28;20044;-79
2022/11/09 05:18:44;;;;;;;0.20;0.10;;;;;;;;;;5062273;28;20031;-78
2022/11/09 05:21:11;;;;;;;0.20;0.00;;;;;;;;;;5064341;28;20046;-77
2022/11/09 05:26:21;;;;;;;0.20;0.10;;;;;;;;;;5062025;28;20039;-81
2022/11/09 05:28:48;;;;;;;0.20;0.10;;;;;;;;;;5046632;28;20119;-76
2022/11/09 05:31:14;;;;;;;0.20;0.10;;;;;;;;;;5043598;28;20937;-78
2022/11/09 05:33:40;;;;;;;0.20;0.10;;;;;;;;;;5047488;28;20055;-79
2022/11/09 05:36:06;;;;;;;0.20;0.10;;;;;;;;;;5042706;28;20123;-76
2022/11/09 05:38:32;;;;;;;0.20;0.10;;;;;;;;;;5049249;28;20047;-78
2022/11/09 05:40:58;;;;;;;0.20;0.10;;;;;;;;;;5045288;28;20044;-77
2022/11/09 05:43:24;;;;;;;0.20;0.10;;;;;;;;;;5062069;28;20051;-80
2022/11/09 05:45:50;;;;;;;0.20;0.10;;;;;;;;;;5028725;28;20040;-77
2022/11/09 05:48:17;;;;;;;0.20;0.10;;;;;;;;;;5058199;28;21780;-78
2022/11/09 05:50:44;;;;;;;0.20;0.10;;;;;;;;;;5046897;28;20146;-78
2022/11/09 05:53:11;;;;;;;0.20;0.10;;;;;;;;;;5056647;28;20055;-77
2022/11/09 05:55:37;;;;;;;0.20;0.10;;;;;;;;;;5027297;28;20032;-76
2022/11/09 05:58:03;;;;;;;0.20;0.10;;;;;;;;;;5066964;28;20413;-77
2022/11/09 06:00:29;;;;;;;1.75;0.47;;;;;;;;;;5046160;28;20044;-80
2022/11/09 06:03:01;;;;;;;0.20;0.10;;;;;;;;;;5048971;28;20484;-79
2022/11/09 06:05:27;;;;;;;0.20;0.10;;;;;;;;;;5063477;28;20040;-77
2022/11/09 06:07:53;;;;;;;0.20;0.10;;;;;;;;;;5052896;28;20036;-77
2022/11/09 06:10:19;;;;;;;0.20;0.10;;;;;;;;;;5047471;28;20044;-77
2022/11/09 06:12:49;;;;;;;0.20;0.10;;;;;;;;;;5045232;28;20048;-78
2022/11/09 06:15:15;;;;;;;0.20;0.10;;;;;;;;;;5045913;28;20124;-79
2022/11/09 06:17:42;;;;;;;0.20;0.10;;;;;;;;;;5061256;28;20864;-78
2022/11/09 06:20:08;;;;;;;0.20;0.10;;;;;;;;;;5043573;28;20360;-78
2022/11/09 06:22:34;;;;;;;0.20;0.10;;;;;;;;;;5060897;28;20039;-76
2022/11/09 06:25:00;;;;;;;0.20;0.10;;;;;;;;;;5050305;28;20125;-81
2022/11/09 06:27:26;;;;;;;0.20;0.10;;;;;;;;;;5026836;28;20047;-79
2022/11/09 06:29:52;;;;;;;0.20;0.10;;;;;;;;;;5044190;28;20378;-79
2022/11/09 06:32:18;;;;;;;0.52;0.10;;;;;;;;;;5041364;28;20154;-79
2022/11/09 06:34:47;;;;;;;0.20;0.10;;;;;;;;;;5030120;28;20540;-78
2022/11/09 06:37:15;;;;;;;0.20;0.10;;;;;;;;;;5060013;28;20048;-79
2022/11/09 06:39:41;;;;;;;0.20;0.10;;;;;;;;;;5051703;28;20043;-76
2022/11/09 06:42:08;;;;;;;2.53;0.90;;;;;;;;;;5051762;28;20934;-79
2022/11/09 06:44:34;;;;;;;0.20;0.10;;;;;;;;;;5057568;28;20036;-77
2022/11/09 06:47:00;;;;;;;0.20;0.10;;;;;;;;;;5070694;28;20515;-80
2022/11/09 06:49:26;;;;;;;0.20;0.10;;;;;;;;;;5067484;28;20070;-80
2022/11/09 06:51:52;;;;;;;0.20;0.10;;;;;;;;;;5051521;28;20044;-79
2022/11/09 06:54:18;;;;;;;0.20;0.10;;;;;;;;;;5061435;28;20040;-80
2022/11/09 06:56:44;;;;;;;0.20;0.10;;;;;;;;;;5079720;28;20041;-77
2022/11/09 06:59:10;;;;;;;0.20;0.10;;;;;;;;;;5078920;28;20502;-79
2022/11/09 07:01:36;;;;;;;0.20;0.10;;;;;;;;;;5075467;28;20040;-79
2022/11/09 07:04:02;;;;;;;0.20;0.10;;;;;;;;;;5057841;28;20047;-78
2022/11/09 07:06:28;;;;;;;0.20;0.10;;;;;;;;;;5039928;28;20043;-78
2022/11/09 07:08:55;;;;;;;0.20;0.10;;;;;;;;;;5057003;28;20065;-77
2022/11/09 07:11:21;;;;;;;0.20;0.10;;;;;;;;;;5074023;28;20036;-79
2022/11/09 07:13:48;;;;;;;0.20;0.10;;;;;;;;;;5072256;28;20115;-78
2022/11/09 07:16:16;;;;;;;0.25;0.10;;;;;;;;;;5056592;28;20044;-79
2022/11/09 07:18:43;;;;;;;0.20;0.10;;;;;;;;;;5056807;28;20028;-79
2022/11/09 07:21:09;;;;;;;0.20;0.10;;;;;;;;;;5072280;28;20040;-77
2022/11/09 07:23:35;;;;;;;0.20;0.10;;;;;;;;;;5040508;28;20037;-77
2022/11/09 07:26:01;;;;;;;0.20;0.10;;;;;;;;;;5071867;28;20070;-77
2022/11/09 07:28:28;;;;;;;0.20;0.10;;;;;;;;;;5057335;28;20115;-79
2022/11/09 07:30:54;;;;;;;0.20;0.10;;;;;;;;;;5073400;28;20043;-77
2022/11/09 07:33:21;;;;;;;0.20;0.10;;;;;;;;;;5068767;28;20046;-78
2022/11/09 07:35:47;;;;;;;0.20;0.10;;;;;;;;;;5052247;28;20035;-79
2022/11/09 07:38:18;;;;;;;0.20;0.05;;;;;;;;;;5054568;28;20052;-76
2022/11/09 07:40:44;;;;;;;0.20;0.10;;;;;;;;;;5044913;28;20053;-80
2022/11/09 07:43:11;;;;;;;0.20;0.10;;;;;;;;;;5042427;28;20036;-79
2022/11/09 07:45:38;;;;;;;0.35;0.30;;;;;;;;;;5041278;28;20037;-78
2022/11/09 07:48:05;;;;;;;0.20;0.10;;;;;;;;;;5071583;28;20063;-79
2022/11/09 07:50:32;;;;;;;0.20;0.10;;;;;;;;;;5072958;28;20075;-78
2022/11/09 07:52:59;;;;;;;0.20;0.10;;;;;;;;;;5053458;28;20466;-78
2022/11/09 07:55:25;;;;;;;0.20;0.10;;;;;;;;;;5063713;28;20055;-79
2022/11/09 07:57:59;;;;;;;0.20;0.10;;;;;;;;;;5052330;28;20043;-77
2022/11/09 08:00:26;;;;;;;0.20;0.00;;;;;;;;;;5052562;28;20094;-77
2022/11/09 08:02:52;;;;;;;0.20;0.10;;;;;;;;;;5063109;28;20038;-78
2022/11/09 08:05:18;;;;;;;0.20;0.10;;;;;;;;;;5071913;28;20031;-77
2022/11/09 08:07:44;;;;;;;0.20;0.10;;;;;;;;;;5057935;28;20115;-75
2022/11/09 08:10:10;;;;;;;0.20;0.10;;;;;;;;;;5061503;28;20048;-78
2022/11/09 08:12:36;;;;;;;0.35;0.25;;;;;;;;;;5039341;28;20044;-79
2022/11/09 08:15:02;;;;;;;0.20;0.10;;;;;;;;;;5039510;28;20091;-79
2022/11/09 08:17:28;;;;;;;0.20;0.10;;;;;;;;;;5055825;28;20039;-79
2022/11/09 08:19:54;;;;;;;0.20;0.10;;;;;;;;;;5058394;28;20048;-76
2022/11/09 08:22:20;;;;;;;0.20;0.05;;;;;;;;;;5055830;28;20036;-78
2022/11/09 08:24:46;;;;;;;0.20;0.10;;;;;;;;;;5056449;28;20063;-78
2022/11/09 08:27:12;;;;;;;0.20;0.10;;;;;;;;;;5039017;28;20032;-78
2022/11/09 08:29:38;;;;;;;0.20;0.10;;;;;;;;;;5057176;28;20394;-77
2022/11/09 08:32:05;;;;;;;0.20;0.10;;;;;;;;;;5054324;28;20059;-78
2022/11/09 08:34:31;;;;;;;1.10;0.55;;;;;;;;;;5068737;28;20051;-78
2022/11/09 08:37:01;;;;;;;0.20;0.10;;;;;;;;;;5068536;28;20036;-77
2022/11/09 08:39:27;;;;;;;0.20;0.10;;;;;;;;;;5057169;28;21251;-78
2022/11/09 08:41:53;;;;;;;0.28;0.13;;;;;;;;;;5074579;28;20048;-78
2022/11/09 08:44:19;;;;;;;0.20;0.03;;;;;;;;;;5072174;28;20032;-79
2022/11/09 08:46:45;;;;;;;0.20;0.10;;;;;;;;;;5054708;28;20040;-78
2022/11/09 08:49:12;;;;;;;0.20;0.10;;;;;;;;;;5067921;28;20036;-80
2022/11/09 08:51:38;;;;;;;0.20;0.10;;;;;;;;;;5069856;28;20050;-79
2022/11/09 08:54:04;;;;;;;0.20;0.10;;;;;;;;;;5067619;28;20498;-78
2022/11/09 08:56:30;;;;;;;0.20;0.10;;;;;;;;;;5050362;28;20043;-78
2022/11/09 08:58:56;;;;;;;0.20;0.10;;;;;;;;;;5054753;28;20059;-79
2022/11/09 09:01:24;;;;;;;0.57;0.20;;;;;;;;;;5068179;28;20129;-79
2022/11/09 09:03:50;;;;;;;0.20;0.10;;;;;;;;;;5071014;28;20052;-78
2022/11/09 09:06:16;;;;;;;0.20;0.10;;;;;;;;;;5052940;28;20177;-80
2022/11/09 09:08:42;;;;;;;0.20;0.10;;;;;;;;;;5052282;28;20039;-79
2022/11/09 09:11:08;;;;;;;0.20;0.10;;;;;;;;;;5052809;28;20039;-79
2022/11/09 09:13:34;;;;;;;0.20;0.10;;;;;;;;;;5067782;28;20032;-80
2022/11/09 09:16:13;;;;;;;0.20;0.10;;;;;;;;;;5066190;28;20453;-78
2022/11/09 09:18:39;;;;;;;0.30;0.13;;;;;;;;;;5049952;28;20040;-80
2022/11/09 09:21:07;;;;;;;0.20;0.10;;;;;;;;;;5065084;28;20048;-78
2022/11/09 09:23:33;;;;;;;0.20;0.10;;;;;;;;;;5053054;28;20044;-80
2022/11/09 09:25:59;;;;;;;0.20;0.10;;;;;;;;;;5052936;28;20050;-77
2022/11/09 09:28:25;;;;;;;0.20;0.10;;;;;;;;;;5047692;28;20211;-80
2022/11/09 09:30:52;;;;;;;0.20;0.10;;;;;;;;;;5062275;28;20079;-81
2022/11/09 09:33:21;;;;;;;0.20;0.03;;;;;;;;;;5055192;28;20103;-80
2022/11/09 09:35:50;;;;;;;0.47;0.47;;;;;;;;;;5105142;22;20432;-89
2022/11/09 09:38:22;;;;;;;0.35;0.35;;;;;;;;;;5100766;27;20062;-83
2022/11/09 09:40:56;;;;;;;0.20;0.10;;;;;;;;;;5104087;27;20512;-86
2022/11/09 09:43:40;;;;;;;0.20;0.10;;;;;;;;;;5101391;27;20050;-85
2022/11/09 09:46:15;;;;;;;0.20;0.10;;;;;;;;;;5099196;28;20050;-84
2022/11/09 09:48:44;;;;;;;0.20;0.20;;;;;;;;;;5084376;28;20581;-88
2022/11/09 09:51:31;;;;;;;0.20;0.10;;;;;;;;;;5081621;28;20385;-86
2022/11/09 09:54:08;;;;;;;0.20;0.10;;;;;;;;;;5093850;28;20097;-85
2022/11/09 09:56:40;;;;;;;0.20;0.10;;;;;;;;;;5095811;28;20040;-87
2022/11/09 09:59:14;;;;;;;0.20;0.10;;;;;;;;;;5096634;28;20039;-84
2022/11/09 10:01:44;;;;;;;0.20;0.10;;;;;;;;;;5079461;28;20513;-84
2022/11/09 10:04:27;;;;;;;0.20;0.10;;;;;;;;;;5061766;28;20048;-86
2022/11/09 10:06:58;;;;;;;;;;;;;;;;;;5094903;28;20039;-86
2022/11/09 10:09:36;;;;;;;0.20;0.10;;;;;;;;;;5081845;28;19920;-85
2022/11/09 10:12:16;;;;;;;0.20;0.10;;;;;;;;;;5098364;28;20047;-85
2022/11/09 10:14:42;;;;;;;0.20;0.10;;;;;;;;;;5097358;27;20039;-83
2022/11/09 10:17:27;;;;;;;0.28;0.28;;;;;;;;;;5082862;28;20501;-85
2022/11/09 10:20:35;;;;;;;0.20;0.10;;;;;;;;;;5093729;28;20485;-85
2022/11/09 10:23:01;;;;;;;0.20;0.10;;;;;;;;;;5005539;28;20328;-85
2022/11/09 10:25:28;;;;;;;0.75;0.20;;;;;;;;;;5002471;28;20041;-84
2022/11/09 10:28:07;;;;;;;0.20;0.10;;;;;;;;;;5039039;28;20402;-90
2022/11/09 10:30:36;;;;;;;1.60;0.95;;;;;;;;;;5097526;28;20130;-88
2022/11/09 10:33:14;;;;;;;0.20;0.10;;;;;;;;;;5080955;28;20401;-87
2022/11/09 10:35:52;;;;;;;0.20;0.10;;;;;;;;;;5089873;28;20055;-85
2022/11/09 10:38:28;;;;;;;0.20;0.10;;;;;;;;;;5091597;28;20552;-86
2022/11/09 10:41:00;;;;;;;0.20;0.10;;;;;;;;;;5080630;28;20050;-85
2022/11/09 10:43:33;;;;;;;0.20;0.10;;;;;;;;;;5098277;28;20043;-88
2022/11/09 10:46:08;;;;;;;0.20;0.10;;;;;;;;;;5094515;28;20100;-85
2022/11/09 10:48:39;;;;;;;0.20;0.10;;;;;;;;;;5079058;28;20032;-88
2022/11/09 10:51:06;;;;;;;0.20;0.10;;;;;;;;;;5078571;28;20075;-85
2022/11/09 10:53:33;;;;;;;0.20;0.10;;;;;;;;;;5093592;28;20051;-85
2022/11/09 10:56:11;;;;;;;0.20;0.10;;;;;;;;;;5088615;28;20067;-87
2022/11/09 10:58:51;;;;;;;0.20;0.10;;;;;;;;;;5076714;28;20048;-88
2022/11/09 11:01:19;;;;;;;3.33;1.23;;;;;;;;;;5077099;28;21503;-89
2022/11/09 11:03:52;;;;;;;0.20;0.10;;;;;;;;;;5095724;28;20044;-86
2022/11/09 11:06:21;;;;;;;0.20;0.10;;;;;;;;;;5075506;28;20486;-85
2022/11/09 11:08:49;;;;;;;0.20;0.10;;;;;;;;;;5090478;28;20043;-87
2022/11/09 11:11:20;;;;;;;0.20;0.10;;;;;;;;;;5098883;27;20347;-88
2022/11/09 11:13:47;;;;;;;0.20;0.10;;;;;;;;;;5091518;28;20261;-84
2022/11/09 11:16:17;;;;;;;0.20;0.05;;;;;;;;;;5092972;28;20070;-87
2022/11/09 11:18:52;;;;;;;1.13;0.68;;;;;;;;;;5098248;27;20140;-87
2022/11/09 11:21:25;;;;;;;0.20;0.10;;;;;;;;;;5081367;28;20032;-86
2022/11/09 11:24:11;;;;;;;0.20;0.10;;;;;;;;;;5089112;28;20183;-84
2022/11/09 11:26:49;;;;;;;0.20;0.10;;;;;;;;;;5073688;28;20356;-85
2022/11/09 11:29:18;;;;;;;0.20;0.10;;;;;;;;;;5083202;28;20513;-84
2022/11/09 11:31:44;;;;;;;0.20;0.10;;;;;;;;;;5094203;28;20047;-83
2022/11/09 11:34:13;;;;;;;0.20;0.10;;;;;;;;;;5096423;28;20631;-85
2022/11/09 11:36:48;;;;;;;0.20;0.10;;;;;;;;;;5081906;28;20043;-84
2022/11/09 11:39:20;;;;;;;0.22;0.15;;;;;;;;;;5094810;28;20072;-84
2022/11/09 11:41:46;;;;;;;0.20;0.10;;;;;;;;;;5095320;28;20028;-84
2022/11/09 11:44:21;;;;;;;0.20;0.10;;;;;;;;;;5094224;28;20040;-87
2022/11/09 11:47:19;;;;;;;0.20;0.10;;;;;;;;;;5079832;28;20087;-84
2022/11/09 11:49:48;;;;;;;0.20;0.10;;;;;;;;;;5067027;28;20048;-86
2022/11/09 11:52:33;;;;;;;0.38;0.20;;;;;;;;;;5080726;28;20443;-84
2022/11/09 11:55:14;;;;;;;0.20;0.00;;;;;;;;;;5082448;28;20043;-84
2022/11/09 11:57:51;;;;;;;0.22;0.15;;;;;;;;;;5100198;28;20046;-88
2022/11/09 12:00:20;;;;;;;0.20;0.10;;;;;;;;;;5099741;28;20126;-88
2022/11/09 12:02:47;;;;;;;0.20;0.10;;;;;;;;;;5102656;28;20440;-85
2022/11/09 12:05:22;;;;;;;0.20;0.10;;;;;;;;;;5096517;28;20435;-85
2022/11/09 12:07:58;;;;;;;0.20;0.10;;;;;;;;;;5083237;28;20553;-83
2022/11/09 12:10:43;;;;;;;0.52;0.52;;;;;;;;;;5118242;27;20122;-85
2022/11/09 12:13:21;;;;;;;0.40;0.40;;;;;;;;;;5097968;28;20027;-86
2022/11/09 12:15:59;;;;;;;0.20;0.10;;;;;;;;;;5096617;28;20679;-88
2022/11/09 12:18:44;;;;;;;0.20;0.10;;;;;;;;;;5101960;27;20124;-86
2022/11/09 12:21:13;;;;;;;0.20;0.10;;;;;;;;;;5085679;28;20269;-84
2022/11/09 12:23:54;;;;;;;0.20;0.10;;;;;;;;;;5076257;28;20067;-86
2022/11/09 12:26:42;;;;;;;0.20;0.10;;;;;;;;;;5081884;28;20121;-84
2022/11/09 12:29:19;;;;;;;0.20;0.10;;;;;;;;;;5093184;28;20046;-86
2022/11/09 12:31:45;;;;;;;0.20;0.10;;;;;;;;;;5097265;27;20046;-87
2022/11/09 12:34:24;;;;;;;0.22;0.22;;;;;;;;;;5080669;28;20101;-87
2022/11/09 12:36:54;;;;;;;0.20;0.10;;;;;;;;;;5099500;27;20119;-85
2022/11/09 12:39:25;;;;;;;0.20;0.10;;;;;;;;;;5098968;28;20051;-87
2022/11/09 12:41:53;;;;;;;0.20;0.10;;;;;;;;;;5076881;28;20032;-85
2022/11/09 12:44:23;;;;;;;0.20;0.10;;;;;;;;;;5096318;28;20036;-86
2022/11/09 12:46:50;;;;;;;0.20;0.10;;;;;;;;;;5082975;28;20110;-89
2022/11/09 12:49:36;;;;;;;0.20;0.10;;;;;;;;;;5096306;28;20048;-88
2022/11/09 12:52:04;;;;;;;0.20;0.10;;;;;;;;;;5077480;28;20082;-87
2022/11/09 12:54:30;;;;;;;0.20;0.10;;;;;;;;;;5077823;28;20047;-88
2022/11/09 12:57:03;;;;;;;0.20;0.20;;;;;;;;;;5068134;28;20043;-86
2022/11/09 12:59:29;;;;;;;0.20;0.20;;;;;;;;;;5091991;28;20123;-88
2022/11/09 13:01:56;;;;;;;0.20;0.10;;;;;;;;;;5083983;28;20126;-89
2022/11/09 13:04:26;;;;;;;0.20;0.10;;;;;;;;;;5079142;28;20054;-88
2022/11/09 13:07:07;;;;;;;0.20;0.10;;;;;;;;;;5097047;28;20587;-87
2022/11/09 13:09:33;;;;;;;0.20;0.10;;;;;;;;;;5099775;28;20136;-88
2022/11/09 13:12:16;;;;;;;0.20;0.10;;;;;;;;;;5097783;27;20059;-85
2022/11/09 13:14:44;;;;;;;0.20;0.10;;;;;;;;;;5099261;28;20591;-87
2022/11/09 13:17:23;;;;;;;0.20;0.10;;;;;;;;;;5075702;28;20050;-89
2022/11/09 13:19:56;;;;;;;0.20;0.10;;;;;;;;;;5075970;28;20681;-85
2022/11/09 13:22:22;;;;;;;0.20;0.10;;;;;;;;;;5098205;28;20496;-86
2022/11/09 13:24:51;;;;;;;0.20;0.10;;;;;;;;;;5099850;28;20032;-90
2022/11/09 13:27:32;;;;;;;0.20;0.10;;;;;;;;;;5092191;28;20086;-86
2022/11/09 13:29:59;;;;;;;0.20;0.10;;;;;;;;;;5098481;28;20040;-88
2022/11/09 13:32:27;;;;;;;0.20;0.10;;;;;;;;;;5101194;27;20074;-85
2022/11/09 13:34:54;;;;;;;0.20;0.10;;;;;;;;;;5097541;27;20083;-86
2022/11/09 13:37:35;;;;;;;0.20;0.10;;;;;;;;;;5098103;28;20119;-87
2022/11/09 13:40:21;;;;;;;0.20;0.10;;;;;;;;;;5094753;28;20047;-87
2022/11/09 13:42:57;;;;;;;0.20;0.10;;;;;;;;;;5080693;28;20046;-87
2022/11/09 13:45:34;;;;;;;0.20;0.10;;;;;;;;;;5100185;28;20054;-88
2022/11/09 13:48:00;;;;;;;0.52;0.32;;;;;;;;;;5079772;28;20571;-85
2022/11/09 13:50:30;;;;;;;0.20;0.08;;;;;;;;;;5068037;28;20103;-87
2022/11/09 13:53:03;;;;;;;0.20;0.10;;;;;;;;;;5097588;27;20075;-86
2022/11/09 13:55:39;;;;;;;0.20;0.10;;;;;;;;;;5098162;28;20058;-85
2022/11/09 13:58:28;;;;;;;1.08;0.15;;;;;;;;;;5094070;28;20081;-84
2022/11/09 14:00:54;;;;;;;0.20;0.10;;;;;;;;;;5073807;28;20044;-86
2022/11/09 14:03:28;;;;;;;0.20;0.10;;;;;;;;;;5083012;28;20035;-87
2022/11/09 14:05:55;;;;;;;0.20;0.10;;;;;;;;;;5097180;28;20117;-87
2022/11/09 14:08:29;;;;;;;0.20;0.10;;;;;;;;;;5097710;28;20248;-87
2022/11/09 14:11:01;;;;;;;0.20;0.10;;;;;;;;;;5114944;27;20035;-85
2022/11/09 14:13:27;;;;;;;0.68;0.30;;;;;;;;;;5083772;28;20063;-86
2022/11/09 14:16:21;;;;;;;0.20;0.10;;;;;;;;;;5084663;27;20533;-86
2022/11/09 14:19:06;;;;;;;0.20;0.10;;;;;;;;;;5112746;27;20051;-85
2022/11/09 14:21:35;;;;;;;1.38;0.20;;;;;;;;;;5105665;28;20522;-82
2022/11/09 14:24:28;;;;;;;0.20;0.10;;;;;;;;;;5099328;28;20047;-88
2022/11/09 14:27:03;;;;;;;0.30;0.30;;;;;;;;;;5102420;28;20497;-87
2022/11/09 14:29:32;;;;;;;0.20;0.10;;;;;;;;;;5102968;28;20132;-88
2022/11/09 14:32:00;;;;;;;0.20;0.10;;;;;;;;;;5075575;28;20043;-89
2022/11/09 14:34:26;;;;;;;0.20;0.10;;;;;;;;;;5080780;28;20230;-88
2022/11/09 14:36:52;;;;;;;0.20;0.10;;;;;;;;;;5088294;28;20051;-86
2022/11/09 14:39:38;;;;;;;0.20;0.10;;;;;;;;;;5092619;28;20122;-84
2022/11/09 14:42:08;;;;;;;0.20;0.10;;;;;;;;;;5082547;28;20118;-84
2022/11/09 14:44:42;;;;;;;0.20;0.10;;;;;;;;;;5114098;27;20130;-85
2022/11/09 14:47:15;;;;;;;0.20;0.10;;;;;;;;;;5080129;28;20098;-86
2022/11/09 14:49:42;;;;;;;0.20;0.10;;;;;;;;;;5092378;28;20039;-86
2022/11/09 14:52:11;;;;;;;0.20;0.10;;;;;;;;;;5095584;27;21656;-83
2022/11/09 14:54:42;;;;;;;0.20;0.10;;;;;;;;;;5085559;28;20235;-86
2022/11/09 14:57:13;;;;;;;0.20;0.10;;;;;;;;;;5097070;28;20101;-86
2022/11/09 14:59:44;;;;;;;0.20;0.17;;;;;;;;;;5092817;28;20096;-87